createdAt,value
2022-12-18T00:02:12.905Z,53.90
2022-12-18T00:07:15.768Z,58.23
2022-12-18T00:17:41.624Z,59.87
2022-12-18T00:22:44.565Z,59.10
2022-12-18T00:27:47.523Z,56.47
2022-12-18T00:32:50.947Z,60.27
2022-12-18T00:37:54.113Z,50.03
2022-12-18T00:42:57.666Z,48.90
2022-12-18T00:48:00.875Z,46.13
2022-12-18T00:53:04.167Z,48.37
2022-12-18T00:58:07.258Z,35.13
2022-12-18T01:03:14.686Z,52.80
2022-12-18T01:08:19.925Z,54.03
2022-12-18T01:13:22.982Z,50.33
2022-12-18T01:18:27.205Z,61.70
2022-12-18T01:23:30.317Z,58.53
2022-12-18T01:28:33.550Z,59.17
2022-12-18T01:33:37.043Z,61.57
2022-12-18T01:38:40.343Z,51.90
2022-12-18T01:43:49.606Z,57.73
2022-12-18T01:49:01.734Z,56.37
2022-12-18T01:54:04.991Z,54.20
2022-12-18T01:59:09.523Z,53.07
2022-12-18T02:04:38.961Z,58.10
2022-12-18T02:10:02.981Z,54.97
2022-12-18T02:15:41.053Z,54.00
2022-12-18T02:20:56.984Z,53.20
2022-12-18T02:26:13.136Z,52.50
2022-12-18T02:31:19.549Z,53.73
2022-12-18T02:36:23.350Z,49.17
2022-12-18T02:41:27.173Z,49.20
2022-12-18T02:46:34.022Z,45.97
2022-12-18T02:51:52.506Z,47.27
2022-12-18T02:56:57.376Z,51.43
2022-12-18T03:02:04.039Z,42.70
2022-12-18T03:07:11.821Z,42.53
2022-12-18T03:12:27.962Z,34.77
2022-12-18T03:17:34.862Z,34.20
2022-12-18T03:22:39.023Z,30.10
2022-12-18T03:27:46.760Z,31.27
2022-12-18T03:33:31.426Z,34.47
2022-12-18T03:38:34.805Z,21.57
2022-12-18T03:43:47.911Z,32.17
2022-12-18T03:48:55.983Z,36.17
2022-12-18T03:54:01.269Z,33.47
2022-12-18T03:59:14.117Z,27.37
2022-12-18T04:04:17.813Z,25.73
2022-12-18T04:09:21.925Z,28.10
2022-12-18T04:14:25.908Z,32.10
2022-12-18T04:19:32.204Z,27.50
2022-12-18T04:24:36.847Z,23.60
2022-12-18T04:29:48.100Z,29.67
2022-12-18T04:34:52.487Z,24.37
2022-12-18T04:39:55.704Z,22.97
2022-12-18T04:45:08.883Z,22.00
2022-12-18T04:50:12.036Z,22.17
2022-12-18T04:55:15.153Z,21.83
2022-12-18T05:00:18.338Z,22.27
2022-12-18T05:05:21.401Z,18.80
2022-12-18T05:10:24.346Z,16.60
2022-12-18T05:15:32.069Z,18.50
2022-12-18T05:20:35.294Z,17.63
2022-12-18T05:25:38.535Z,20.10
2022-12-18T05:30:41.873Z,17.27
2022-12-18T05:35:45.472Z,17.77
2022-12-18T05:40:52.743Z,18.53
2022-12-18T05:45:58.130Z,22.07
2022-12-18T05:51:08.721Z,16.97
2022-12-18T05:56:14.867Z,14.70
2022-12-18T06:01:21.215Z,15.07
2022-12-18T06:06:26.388Z,10.00
2022-12-18T06:11:29.646Z,13.77
2022-12-18T06:16:33.023Z,15.23
2022-12-18T06:21:36.411Z,22.57
2022-12-18T06:26:42.503Z,18.33
2022-12-18T06:31:45.757Z,16.23
2022-12-18T06:36:48.759Z,18.33
2022-12-18T06:41:52.600Z,19.27
2022-12-18T06:46:55.573Z,19.83
2022-12-18T06:51:58.580Z,17.50
2022-12-18T06:57:01.581Z,18.97
2022-12-18T07:02:04.866Z,22.40
2022-12-18T07:07:08.261Z,20.93
2022-12-18T07:12:11.700Z,24.53
2022-12-18T07:17:14.980Z,21.37
2022-12-18T07:22:18.354Z,41.63
2022-12-18T07:27:21.368Z,27.97
2022-12-18T07:32:24.832Z,29.00
2022-12-18T07:37:27.886Z,25.00
2022-12-18T07:42:33.548Z,25.07
2022-12-18T07:47:37.655Z,27.67
2022-12-18T07:52:40.936Z,21.00
2022-12-18T07:57:55.172Z,28.00
2022-12-18T08:03:01.128Z,30.00
2022-12-18T08:08:04.597Z,27.07
2022-12-18T08:13:07.665Z,35.97
2022-12-18T08:18:14.208Z,31.90
2022-12-18T08:23:20.951Z,29.10
2022-12-18T08:28:23.906Z,27.57
2022-12-18T08:33:27.533Z,29.17
2022-12-18T08:38:30.935Z,22.10
2022-12-18T08:43:52.499Z,27.00
2022-12-18T08:48:57.199Z,26.30
2022-12-18T08:54:00.435Z,23.13
2022-12-18T08:59:03.813Z,22.13
2022-12-18T09:04:07.965Z,18.33
2022-12-18T09:09:12.264Z,26.43
2022-12-18T09:14:15.363Z,13.70
2022-12-18T09:19:18.581Z,23.97
2022-12-18T09:24:21.587Z,65.47
2022-12-18T09:29:24.780Z,29.97
2022-12-18T09:34:28.156Z,23.57
2022-12-18T09:39:31.348Z,25.30
2022-12-18T09:44:44.478Z,20.90
2022-12-18T09:49:55.084Z,24.13
2022-12-18T09:55:03.862Z,31.47
2022-12-18T10:00:24.413Z,34.50
2022-12-18T10:05:37.874Z,33.47
2022-12-18T10:10:51.746Z,30.97
2022-12-18T10:16:21.105Z,30.80
2022-12-18T10:21:33.932Z,43.17
2022-12-18T10:26:36.936Z,28.17
2022-12-18T10:31:40.197Z,32.47
2022-12-18T10:36:43.651Z,23.63
2022-12-18T10:41:46.555Z,32.23
2022-12-18T10:46:57.252Z,37.70
2022-12-18T10:52:07.286Z,27.23
2022-12-18T10:57:18.062Z,30.83
2022-12-18T11:02:39.015Z,23.80
2022-12-18T11:07:55.396Z,24.60
2022-12-18T11:13:23.541Z,20.93
2022-12-18T11:18:36.260Z,20.97
2022-12-18T11:23:51.410Z,24.97
2022-12-18T11:29:18.279Z,19.63
2022-12-18T11:34:31.416Z,22.70
2022-12-18T11:39:42.313Z,14.20
2022-12-18T11:44:54.314Z,18.60
2022-12-18T11:50:03.223Z,25.17
2022-12-18T11:55:16.521Z,20.87
2022-12-18T12:00:20.987Z,26.33
2022-12-18T12:05:41.875Z,32.00
2022-12-18T12:11:04.289Z,21.10
2022-12-18T12:16:23.702Z,22.80
2022-12-18T12:22:11.470Z,24.60
2022-12-18T12:27:17.827Z,22.77
2022-12-18T12:32:27.707Z,26.13
2022-12-18T12:37:57.377Z,19.20
2022-12-18T12:43:14.327Z,24.13
2022-12-18T12:48:30.262Z,23.13
2022-12-18T12:53:36.174Z,20.13
2022-12-18T12:58:42.187Z,19.13
2022-12-18T13:03:48.886Z,16.50
2022-12-18T13:08:58.355Z,15.10
2022-12-18T13:14:02.029Z,19.57
2022-12-18T13:19:06.016Z,18.10
2022-12-18T13:24:28.975Z,29.93
2022-12-18T13:29:43.909Z,21.10
2022-12-18T13:34:47.167Z,19.57
2022-12-18T13:39:50.317Z,17.83
2022-12-18T13:44:53.537Z,18.27
2022-12-18T13:49:57.876Z,15.73
2022-12-18T13:55:02.692Z,18.00
2022-12-18T14:00:21.251Z,27.77
2022-12-18T14:05:39.516Z,16.13
2022-12-18T14:10:50.312Z,20.73
2022-12-18T14:15:53.877Z,22.40
2022-12-18T14:21:03.008Z,209.63
2022-12-18T14:26:31.272Z,22.20
2022-12-18T14:31:34.673Z,20.87
2022-12-18T14:36:37.980Z,22.27
2022-12-18T14:41:41.143Z,21.03
2022-12-18T14:46:47.064Z,20.13
2022-12-18T14:51:52.992Z,21.20
2022-12-18T14:57:08.002Z,20.40
2022-12-18T15:02:20.411Z,28.87
2022-12-18T15:07:25.186Z,34.53
2022-12-18T15:12:36.703Z,27.67
2022-12-18T15:17:40.423Z,21.67
2022-12-18T15:22:43.782Z,23.87
2022-12-18T15:27:50.725Z,22.47
2022-12-18T15:33:27.744Z,23.37
2022-12-18T15:38:31.181Z,24.73
2022-12-18T15:43:37.958Z,52.80
2022-12-18T15:48:46.199Z,24.60
2022-12-18T15:53:51.004Z,26.57
2022-12-18T15:58:54.137Z,41.53
2022-12-18T16:03:57.210Z,24.40
2022-12-18T16:09:00.638Z,27.63
2022-12-18T16:14:03.992Z,25.20
2022-12-18T16:19:07.273Z,36.77
2022-12-18T16:24:23.033Z,30.70
2022-12-18T16:29:28.867Z,32.13
2022-12-18T16:34:35.856Z,28.07
2022-12-18T16:39:41.987Z,29.67
2022-12-18T16:44:45.744Z,39.97
2022-12-18T16:49:52.025Z,33.10
2022-12-18T16:54:55.083Z,29.43
2022-12-18T17:00:04.472Z,37.60
2022-12-18T17:05:08.799Z,38.87
2022-12-18T17:10:12.303Z,38.73
2022-12-18T17:15:15.838Z,42.23
2022-12-18T17:20:20.108Z,37.03
2022-12-18T17:25:24.097Z,31.70
2022-12-18T17:30:28.392Z,37.00
2022-12-18T17:35:31.570Z,30.57
2022-12-18T17:40:35.695Z,31.13
2022-12-18T17:45:40.009Z,32.60
2022-12-18T17:50:47.277Z,35.87
2022-12-18T17:55:58.274Z,35.20
2022-12-18T18:01:01.394Z,32.07
2022-12-18T18:06:04.763Z,48.87
2022-12-18T18:11:29.981Z,100.43
2022-12-18T18:16:41.791Z,35.20
2022-12-18T18:21:47.072Z,41.50
2022-12-18T18:26:50.519Z,40.50
2022-12-18T18:31:53.964Z,39.63
2022-12-18T18:36:57.088Z,35.17
2022-12-18T18:42:03.048Z,37.17
2022-12-18T18:47:09.415Z,38.87
2022-12-18T18:52:12.786Z,56.90
2022-12-18T18:57:20.899Z,93.40
2022-12-18T19:02:24.886Z,55.20
2022-12-18T19:07:30.616Z,47.40
2022-12-18T19:12:53.000Z,52.47
2022-12-18T19:17:58.380Z,51.20
2022-12-18T19:23:01.655Z,47.53
2022-12-18T19:28:05.280Z,48.30
2022-12-18T19:33:34.459Z,52.93
2022-12-18T19:38:33.335Z,56.73
2022-12-18T19:43:39.743Z,61.97
2022-12-18T19:48:44.768Z,67.90
2022-12-18T19:53:52.416Z,65.03
2022-12-18T19:59:00.239Z,68.10
2022-12-18T20:04:03.514Z,66.13
2022-12-18T20:09:07.348Z,61.07
2022-12-18T20:14:12.245Z,69.93
2022-12-18T20:20:45.908Z,73.87
2022-12-18T20:24:38.322Z,61.03
2022-12-18T20:29:41.807Z,57.70
2022-12-18T20:34:44.875Z,61.53
2022-12-18T20:39:48.396Z,59.90
2022-12-18T20:44:51.599Z,67.30
2022-12-18T20:49:54.712Z,66.07
2022-12-18T20:54:57.646Z,58.10
2022-12-18T21:00:02.832Z,69.93
2022-12-18T21:05:06.330Z,62.57
2022-12-18T21:10:09.815Z,58.93
2022-12-18T21:15:13.217Z,68.50
2022-12-18T21:20:18.151Z,69.47
2022-12-18T21:25:21.928Z,65.27
2022-12-18T21:30:24.682Z,72.27
2022-12-18T21:35:27.894Z,73.93
2022-12-18T21:40:34.058Z,71.67
2022-12-18T21:45:37.168Z,68.80
2022-12-18T21:50:39.917Z,69.83
2022-12-18T21:55:42.681Z,67.63
2022-12-18T22:00:48.625Z,63.53
2022-12-18T22:05:57.083Z,71.80
2022-12-18T22:11:12.809Z,66.10
2022-12-18T22:16:15.821Z,64.70
2022-12-18T22:21:32.945Z,74.03
2022-12-18T22:26:40.094Z,76.30
2022-12-18T22:31:43.611Z,83.33
2022-12-18T22:36:48.506Z,71.53
2022-12-18T22:41:51.926Z,76.90
2022-12-18T22:47:06.003Z,68.20
2022-12-18T22:52:13.421Z,74.37
2022-12-18T22:57:18.489Z,68.50
2022-12-18T23:02:21.717Z,68.27
2022-12-18T23:07:26.009Z,66.83
2022-12-18T23:12:29.098Z,63.27
2022-12-18T23:17:34.956Z,70.60
2022-12-18T23:22:38.112Z,74.77
2022-12-18T23:28:21.741Z,99.97
2022-12-18T23:33:24.949Z,85.83
2022-12-18T23:38:32.413Z,78.70
2022-12-18T23:43:35.822Z,85.97
2022-12-18T23:48:39.624Z,82.80
2022-12-18T23:53:43.728Z,87.67
2022-12-18T23:58:48.907Z,89.83
